Hullsville, New York
Current Conditions -  °F | °C
As of 12:53 AM on Thursday 23 Oct 2014 (Local Time) from KBGM Reporting Station
Overcast Overcast  
Wind Chill: 35°   Ceiling: 700
Heat Index: 43°   Visibility: 10mi
Dew Point: 41°   Wind: 16mph
Humidity: 93%   Direction: 340°NNW
Pressure: 29.96"   Gusts: NA
Location:  42.1349°N, 76.2495°W
Report Text: KBGM 230453Z AUTO 34014KT 10SM OVC007 06/05 A2996 RMK AO2 RAE10 SLP152 P0000 T00610050 401000061
Loading
Personal Weather Stations






























Interactive Weather Map
Tropical Storm Tracking
New forecast layout! Learn more

10-Day Weather Forecast

Advertisements
Track Severe Weather on mobile